Detall de PIREP

Printer-friendly versionPDF version

[2012/10/12 18:14:00]
Flight IATA:CT1005
Pilot Number:037
Company ICAO:CAT
Aircraft Type:B752/E
PAX:140
Aircraft Registration:PAX
Departing Airport: EPWA
Destination Airport: ELLX
Alternate Airport:EDDK
Online: VATSIM
Route:LOLSI T174 INDIG L980 SUI UL980 DLE UZ717 EXOBA T886 TOBIV T884 GEGVO T855 LNO
Flight Level:F360
No Slew and time accel
No pause
Crash detect
Detect pilot in Cockpit between each 30 and 45 minutes
18:14 Zero fuel Weight: 167233 Lbs, Fuel Weight: 26089 Lbs
18:14 VATSIM:EPWA 121800Z 10006KT CAVOK 06/02 Q1016 NOSIG
18:14 VATSIM:ELLX 121750Z 23005KT 9999 FEW030 08/04 Q1013 NOSIG
18:39 Take-off
18:39 Take off Weight: 191936 Lbs
18:39 Wind: 097º @ 006 Knots Heading: 148º
18:39 POS N52º 09´ 54´´ E020º 58´ 04´´
18:39 Gear Up: 205 Knots
18:39 Flaps:2 at 206 Knots
18:39 Flaps:1 at 213 Knots
18:39 Flaps:0 at 216 Knots
18:54 Wind:103º@022 Knots Heading: 275º Ground Speed: 412 Knots Altitude 21397 ft
19:01 TOC
19:01 Fuel Weight: 20214 Lb
19:09 Wind:105º@030 Knots Heading: 273º Ground Speed: 501 Knots Altitude 35915 ft
19:24 Wind:161º@023 Knots Heading: 266º Ground Speed: 476 Knots Altitude 35856 ft
19:39 Wind:240º@035 Knots Heading: 243º Ground Speed: 438 Knots Altitude 35807 ft
19:54 Wind:221º@041 Knots Heading: 233º Ground Speed: 431 Knots Altitude 35928 ft
19:55 TOD
19:55 Fuel Weight: 11854 Lb
20:09 Wind:221º@033 Knots Heading: 160º Ground Speed: 323 Knots Altitude 21620 ft
20:20 Flaps:1 at 213 Knots
20:20 Flaps:2 at 191 Knots
20:21 Flaps:3 at 182 Knots
20:21 Gear Down: 184 Knots
20:21 Flaps:4 at 177 Knots
20:21 Flaps:5 at 174 Knots
20:22 Flaps:6 at 159 Knots
20:22 TouchDown:Rate -143 ft/min Speed: 134 Knots
20:22 VATSIM:ELLX 121950Z 22007KT 190V250 9999 FEW045 08/05 Q1014 NOSIG
20:22 Land
20:22 Wind:224º@007 Knots
20:22 Heading: 239º
20:22 Flight Duration: 01:43
20:22 Landing Weight: 177544 Lbs
20:22 POS N49º 37´ 46´´ E006º 13´ 09´´
20:29 Parking brakes on
20:29 Block to Block Duration: 01:50
20:29 Final Fuel: 9552 Lbls
20:29 Spent Fuel: 16536 Lbls
20:29 Flight Length: 510 NM
20:29 TOD Land Length: 63 NM

Exportar CSV

Powered by Drupal - Modified by Danger4k